Time;durP1;ratioP1;P1;durP2;ratioP2;P2;SDS_P1;SDS_P2;PMS_P1;PMS_P2;Temp;Humidity;BMP_temperature;BMP_pressure;BME280_temperature;BME280_humidity;BME280_pressure;Samples;Min_cycle;Max_cycle;Signal;HPM_P1;HPM_P2
2024/01/08 00:01:34;;;;;;;7.67;3.73;;;-0.70;72.80;;;;;;5028872;28;20030;-82
2024/01/08 00:03:59;;;;;;;6.97;4.03;;;-0.70;72.80;;;;;;5012299;28;20029;-82
2024/01/08 00:06:25;;;;;;;5.87;3.67;;;-0.70;73.10;;;;;;5012938;28;20057;-82
2024/01/08 00:08:51;;;;;;;7.10;3.67;;;-0.70;72.70;;;;;;5034928;28;20143;-81
2024/01/08 00:11:17;;;;;;;6.53;3.53;;;-0.80;72.50;;;;;;5027558;28;20034;-81
2024/01/08 00:13:42;;;;;;;6.87;3.73;;;-0.10;73.30;;;;;;5011393;28;20118;-81
2024/01/08 00:16:08;;;;;;;5.47;2.97;;;-0.80;73.00;;;;;;5005671;28;20045;-82
2024/01/08 00:18:34;;;;;;;6.97;3.20;;;-0.80;72.70;;;;;;5018662;28;20497;-81
2024/01/08 00:21:02;;;;;;;6.00;3.33;;;-0.80;73.40;;;;;;5000400;28;20150;-80
2024/01/08 00:23:29;;;;;;;6.63;3.30;;;-0.80;72.80;;;;;;4999921;28;20173;-81
2024/01/08 00:25:54;;;;;;;6.60;3.17;;;-0.80;73.00;;;;;;5001249;28;20045;-81
2024/01/08 00:28:20;;;;;;;5.13;3.10;;;-0.80;72.80;;;;;;5015459;28;20048;-81
2024/01/08 00:30:46;;;;;;;6.23;3.57;;;-0.80;73.10;;;;;;5017206;28;20048;-80
2024/01/08 00:33:11;;;;;;;8.23;3.93;;;-0.80;72.60;;;;;;5018576;28;20049;-80
2024/01/08 00:35:37;;;;;;;6.37;3.33;;;-0.80;72.80;;;;;;5015880;28;20073;-82
2024/01/08 00:38:03;;;;;;;4.80;3.00;;;-0.80;72.90;;;;;;5004819;28;20048;-81
2024/01/08 00:40:29;;;;;;;7.30;3.43;;;-0.80;72.90;;;;;;5021742;28;20045;-81
2024/01/08 00:42:55;;;;;;;6.77;3.03;;;-0.80;73.00;;;;;;5021524;28;20042;-81
2024/01/08 00:45:21;;;;;;;7.40;3.67;;;-0.80;72.90;;;;;;5017714;28;20092;-80
2024/01/08 00:47:46;;;;;;;5.40;3.47;;;-0.90;72.80;;;;;;5001245;28;20145;-80
2024/01/08 00:50:13;;;;;;;7.00;3.67;;;-0.90;72.70;;;;;;5017665;28;20349;-81
2024/01/08 00:52:39;;;;;;;5.23;3.30;;;-0.90;72.70;;;;;;5014177;28;20469;-80
2024/01/08 00:55:06;;;;;;;6.87;3.03;;;-0.90;72.70;;;;;;5014876;28;20045;-80
2024/01/08 00:57:32;;;;;;;6.07;3.53;;;-0.90;72.50;;;;;;5018917;28;20097;-82
2024/01/08 00:59:58;;;;;;;7.80;3.50;;;-0.90;72.70;;;;;;5006244;28;20044;-80
2024/01/08 01:02:23;;;;;;;6.40;3.50;;;-0.90;72.60;;;;;;5008559;28;20121;-80
2024/01/08 01:04:49;;;;;;;5.63;3.10;;;-0.90;72.70;;;;;;5008328;28;20038;-80
2024/01/08 01:07:15;;;;;;;9.47;3.80;;;-1.00;72.70;;;;;;5027240;28;20045;-80
2024/01/08 01:09:41;;;;;;;8.97;4.17;;;-1.00;72.80;;;;;;5022933;28;20179;-81
2024/01/08 01:12:06;;;;;;;5.63;3.50;;;-1.00;72.90;;;;;;5024891;28;20061;-81
2024/01/08 01:14:32;;;;;;;8.37;3.70;;;-1.00;73.00;;;;;;5008725;28;20073;-80
2024/01/08 01:16:59;;;;;;;8.37;3.17;;;-1.00;73.20;;;;;;5007515;28;20037;-81
2024/01/08 01:19:24;;;;;;;9.13;3.97;;;-1.00;73.10;;;;;;5026430;28;20099;-80
2024/01/08 01:21:50;;;;;;;9.37;4.03;;;-1.00;73.30;;;;;;5022678;28;20108;-80
2024/01/08 01:24:15;;;;;;;7.33;3.60;;;-1.00;73.40;;;;;;5008580;28;20037;-80
2024/01/08 01:26:41;;;;;;;7.87;3.50;;;-1.00;73.40;;;;;;5023205;28;20164;-80
2024/01/08 01:29:07;;;;;;;5.57;3.40;;;-1.00;73.60;;;;;;5026624;28;20038;-81
2024/01/08 01:31:33;;;;;;;6.20;3.73;;;-1.00;73.60;;;;;;5007151;28;20089;-81
2024/01/08 01:34:06;;;;;;;8.20;4.20;;;-1.00;73.70;;;;;;5003623;28;20037;-81
2024/01/08 01:36:35;;;;;;;9.73;4.60;;;-1.10;73.70;;;;;;5018418;28;20054;-80
2024/01/08 01:39:05;;;;;;;8.13;3.70;;;-1.10;73.70;;;;;;5005226;28;20401;-80
2024/01/08 01:41:34;;;;;;;7.80;3.87;;;-1.10;73.70;;;;;;5018125;28;20045;-80
2024/01/08 01:43:59;;;;;;;8.67;3.57;;;-1.10;73.90;;;;;;5018350;28;20435;-81
2024/01/08 01:46:37;;;;;;;7.67;4.30;;;-1.10;73.90;;;;;;5000950;28;20046;-80
2024/01/08 01:49:04;;;;;;;7.07;4.20;;;-1.10;73.80;;;;;;5023459;28;20046;-80
2024/01/08 01:51:30;;;;;;;8.77;3.80;;;-1.20;74.00;;;;;;5006621;28;20060;-80
2024/01/08 01:53:57;;;;;;;6.87;3.80;;;-1.10;74.20;;;;;;5006575;28;20057;-80
2024/01/08 01:56:23;;;;;;;8.13;3.83;;;-1.20;74.30;;;;;;5008206;28;20185;-80
2024/01/08 01:58:49;;;;;;;8.40;4.20;;;-1.20;74.50;;;;;;5008647;28;20144;-80
2024/01/08 02:01:15;;;;;;;8.40;4.00;;;-1.20;74.80;;;;;;5025209;28;20029;-80
2024/01/08 02:03:41;;;;;;;7.97;4.13;;;-1.20;74.90;;;;;;5005441;28;20092;-80
2024/01/08 02:06:11;;;;;;;8.03;4.70;;;-1.20;75.20;;;;;;5019688;28;20050;-80
2024/01/08 02:08:37;;;;;;;8.73;4.00;;;-1.20;75.30;;;;;;5004683;28;20123;-80
2024/01/08 02:11:03;;;;;;;6.77;4.57;;;-1.20;75.60;;;;;;4999549;28;20498;-82
2024/01/08 02:13:29;;;;;;;9.80;4.33;;;-1.10;75.70;;;;;;5003797;28;20140;-80
2024/01/08 02:15:55;;;;;;;9.10;4.60;;;-1.10;75.80;;;;;;4999905;28;20128;-80
2024/01/08 02:18:20;;;;;;;8.83;4.47;;;-1.10;75.80;;;;;;4999292;28;20030;-81
2024/01/08 02:20:46;;;;;;;7.90;4.90;;;-1.10;75.80;;;;;;4999075;28;20065;-81
2024/01/08 02:23:12;;;;;;;7.87;4.47;;;-1.10;76.00;;;;;;4998681;28;20038;-81
2024/01/08 02:25:38;;;;;;;9.87;4.17;;;-1.10;76.20;;;;;;5000608;28;20049;-81
2024/01/08 02:28:03;;;;;;;8.13;5.00;;;-1.10;76.20;;;;;;4999253;28;20038;-81
2024/01/08 02:30:29;;;;;;;9.90;4.60;;;-1.10;76.40;;;;;;5015671;28;20042;-81
2024/01/08 02:32:55;;;;;;;7.73;4.43;;;-1.10;76.50;;;;;;5018035;28;20081;-81
2024/01/08 02:35:20;;;;;;;8.83;4.93;;;-1.10;76.60;;;;;;5001238;28;20037;-81
2024/01/08 02:37:46;;;;;;;9.70;4.87;;;-1.10;76.70;;;;;;5015748;28;20102;-81
2024/01/08 02:40:12;;;;;;;9.37;4.70;;;-1.00;77.00;;;;;;5018059;28;20546;-81
2024/01/08 02:42:40;;;;;;;7.73;4.60;;;-1.00;76.90;;;;;;5004128;28;20158;-81
2024/01/08 02:45:06;;;;;;;9.63;4.67;;;-1.00;77.10;;;;;;5019119;28;20108;-81
2024/01/08 02:47:34;;;;;;;7.83;4.80;;;-1.00;77.10;;;;;;5019171;28;20054;-81
2024/01/08 02:50:00;;;;;;;9.33;4.80;;;-1.00;77.10;;;;;;5019462;28;20096;-81
2024/01/08 02:52:25;;;;;;;8.73;5.40;;;-0.90;77.20;;;;;;5021204;28;20451;-81
2024/01/08 02:54:51;;;;;;;8.70;4.73;;;-0.90;77.40;;;;;;5002145;28;20034;-81
2024/01/08 02:57:16;;;;;;;9.80;5.00;;;-0.90;77.30;;;;;;5001075;28;20103;-81
2024/01/08 02:59:42;;;;;;;10.57;4.63;;;-0.90;77.50;;;;;;5015700;28;20453;-81
2024/01/08 03:02:07;;;;;;;8.03;4.83;;;-0.80;77.70;;;;;;5018165;28;20034;-81
2024/01/08 03:04:33;;;;;;;9.60;5.13;;;-0.80;77.70;;;;;;5019008;28;20484;-81
2024/01/08 03:07:01;;;;;;;10.77;5.47;;;-0.80;77.70;;;;;;5017320;28;20073;-81
2024/01/08 03:09:27;;;;;;;8.43;5.07;;;-0.80;77.90;;;;;;5004200;28;20030;-80
2024/01/08 03:11:52;;;;;;;9.73;5.20;;;-0.70;78.10;;;;;;5008708;28;20137;-81
2024/01/08 03:14:18;;;;;;;7.73;5.37;;;-0.70;78.20;;;;;;5006728;28;20128;-81
2024/01/08 03:16:44;;;;;;;8.00;5.30;;;-0.70;78.30;;;;;;5020337;28;20034;-81
2024/01/08 03:19:09;;;;;;;16.63;6.07;;;-0.70;78.50;;;;;;5018910;28;20045;-81
2024/01/08 03:21:35;;;;;;;8.57;5.17;;;-0.70;78.50;;;;;;5023732;28;20065;-81
2024/01/08 03:24:01;;;;;;;10.50;5.87;;;-0.70;78.80;;;;;;5020568;28;20030;-81
2024/01/08 03:26:26;;;;;;;10.07;6.17;;;-0.60;79.10;;;;;;5018174;28;20042;-82
2024/01/08 03:28:52;;;;;;;8.50;6.13;;;-0.60;79.10;;;;;;5017979;28;20042;-81
2024/01/08 03:31:18;;;;;;;9.10;5.47;;;-0.60;79.20;;;;;;5004726;28;20049;-81
2024/01/08 03:33:43;;;;;;;10.47;6.00;;;-0.60;79.10;;;;;;5023386;28;20037;-81
2024/01/08 03:36:10;;;;;;;10.63;6.40;;;-0.50;79.40;;;;;;5017339;28;20405;-81
2024/01/08 03:38:36;;;;;;;11.27;6.60;;;-0.60;79.50;;;;;;5015001;28;20046;-80
2024/01/08 03:41:01;;;;;;;12.07;5.43;;;-0.50;79.80;;;;;;5019122;28;20026;-80
2024/01/08 03:43:27;;;;;;;11.97;6.07;;;-0.50;79.80;;;;;;5021560;28;20121;-81
2024/01/08 03:45:53;;;;;;;10.40;5.83;;;-0.50;79.90;;;;;;5013387;28;20547;-81
2024/01/08 03:48:18;;;;;;;11.27;5.43;;;-0.50;79.90;;;;;;4999111;28;20091;-81
2024/01/08 03:50:44;;;;;;;11.87;5.93;;;-0.40;80.00;;;;;;5015177;28;20038;-82
2024/01/08 03:53:09;;;;;;;9.87;5.83;;;-0.40;80.20;;;;;;5000236;28;20029;-82
2024/01/08 03:55:37;;;;;;;10.80;6.00;;;-0.40;80.10;;;;;;5017476;28;20524;-82
2024/01/08 03:58:03;;;;;;;9.30;5.83;;;-0.40;80.30;;;;;;5000601;28;20493;-82
2024/01/08 04:00:29;;;;;;;10.63;6.80;;;-0.40;80.40;;;;;;5021677;28;20049;-82
2024/01/08 04:02:54;;;;;;;9.93;6.63;;;-0.40;80.40;;;;;;5016689;28;20026;-82
2024/01/08 04:05:20;;;;;;;10.63;5.67;;;-0.30;80.50;;;;;;5015005;28;20060;-82
2024/01/08 04:07:46;;;;;;;9.73;5.53;;;-0.30;80.30;;;;;;5016023;28;20038;-82
2024/01/08 04:10:12;;;;;;;9.10;5.07;;;-0.30;80.30;;;;;;5017486;28;20050;-82
2024/01/08 04:12:38;;;;;;;11.40;6.17;;;-0.30;80.10;;;;;;5004290;28;20133;-82
2024/01/08 04:15:04;;;;;;;8.10;5.00;;;-0.30;80.10;;;;;;5015585;28;20108;-82
2024/01/08 04:17:29;;;;;;;8.87;5.00;;;-0.30;80.20;;;;;;5016899;28;20539;-82
2024/01/08 04:19:55;;;;;;;9.43;4.90;;;-0.30;79.70;;;;;;5002666;28;20029;-82
2024/01/08 04:22:21;;;;;;;8.67;5.10;;;-0.30;79.30;;;;;;5019004;28;20450;-82
2024/01/08 04:24:46;;;;;;;8.17;4.73;;;-0.30;79.20;;;;;;5001488;28;20038;-82
2024/01/08 04:27:12;;;;;;;7.50;4.43;;;-0.30;79.00;;;;;;5016388;28;20120;-82
2024/01/08 04:29:38;;;;;;;6.97;4.57;;;-0.30;78.80;;;;;;5017712;28;20056;-82
2024/01/08 04:32:04;;;;;;;9.30;4.57;;;-0.20;78.50;;;;;;5001546;28;20054;-82
2024/01/08 04:34:30;;;;;;;9.03;4.70;;;-0.20;78.10;;;;;;5013433;28;20046;-82
2024/01/08 04:36:55;;;;;;;9.20;5.20;;;-0.20;78.10;;;;;;5002081;28;20068;-82
2024/01/08 04:39:21;;;;;;;6.77;4.33;;;-0.20;77.90;;;;;;5004365;28;20104;-82
2024/01/08 04:41:46;;;;;;;7.33;4.33;;;-0.20;77.60;;;;;;5004553;28;20038;-81
2024/01/08 04:44:12;;;;;;;7.67;5.00;;;-0.20;77.60;;;;;;5022670;28;20140;-82
2024/01/08 04:46:38;;;;;;;7.53;3.83;;;-0.20;77.30;;;;;;5019817;28;20472;-82
2024/01/08 04:49:04;;;;;;;7.80;4.70;;;-0.20;77.10;;;;;;5019130;28;20051;-82
2024/01/08 04:51:30;;;;;;;7.10;4.00;;;-0.20;76.50;;;;;;5016737;28;20038;-82
2024/01/08 04:53:56;;;;;;;8.87;4.30;;;-0.20;76.70;;;;;;5018766;28;20074;-82
2024/01/08 04:56:25;;;;;;;9.33;4.90;;;-0.20;76.50;;;;;;5024328;28;20038;-82
2024/01/08 04:58:54;;;;;;;6.10;3.73;;;-0.20;76.00;;;;;;5015618;28;20485;-82
2024/01/08 05:01:20;;;;;;;7.63;4.10;;;-0.20;76.20;;;;;;5014553;28;20054;-82
2024/01/08 05:03:46;;;;;;;6.90;4.10;;;-0.20;75.70;;;;;;5016283;28;20044;-82
2024/01/08 05:06:12;;;;;;;8.33;4.00;;;-0.20;75.30;;;;;;5006456;28;20034;-82
2024/01/08 05:08:38;;;;;;;6.53;4.00;;;-0.20;75.40;;;;;;5023970;28;20031;-82
2024/01/08 05:11:05;;;;;;;7.50;4.30;;;-0.20;75.40;;;;;;5025527;28;20106;-82
2024/01/08 05:13:31;;;;;;;7.03;3.80;;;-0.20;75.40;;;;;;5024763;28;20080;-82
2024/01/08 05:15:57;;;;;;;8.77;4.33;;;-0.20;75.30;;;;;;5022762;28;20038;-82
2024/01/08 05:18:23;;;;;;;4.50;3.47;;;-0.30;75.30;;;;;;5019037;28;20037;-82
2024/01/08 05:20:48;;;;;;;6.53;3.73;;;-0.30;75.00;;;;;;5018461;28;20198;-80
2024/01/08 05:23:14;;;;;;;9.10;4.80;;;-0.30;75.10;;;;;;5000788;28;20426;-81
2024/01/08 05:25:39;;;;;;;6.50;3.77;;;-0.40;75.30;;;;;;5018085;28;20065;-80
2024/01/08 05:28:06;;;;;;;7.17;3.90;;;-0.30;75.20;;;;;;5016527;28;20045;-80
2024/01/08 05:30:32;;;;;;;6.13;3.60;;;-0.40;75.10;;;;;;5020447;28;20050;-80
2024/01/08 05:32:57;;;;;;;6.80;4.57;;;-0.40;74.90;;;;;;5002334;28;20030;-80
2024/01/08 05:35:23;;;;;;;6.93;4.17;;;-0.40;75.10;;;;;;5017451;28;20103;-80
2024/01/08 05:37:48;;;;;;;7.93;3.87;;;-0.40;75.10;;;;;;5004251;28;20025;-80
2024/01/08 05:40:14;;;;;;;6.63;3.90;;;-0.50;75.00;;;;;;5000258;28;20221;-80
2024/01/08 05:42:40;;;;;;;7.63;4.40;;;-0.50;74.80;;;;;;5017659;28;20038;-80
2024/01/08 05:45:09;;;;;;;6.50;4.03;;;-0.50;74.90;;;;;;5003972;28;20050;-80
2024/01/08 05:47:35;;;;;;;6.83;4.43;;;-0.50;75.10;;;;;;5020957;28;20120;-81
2024/01/08 05:50:04;;;;;;;8.93;4.63;;;-0.60;75.10;;;;;;5001938;28;20493;-80
2024/01/08 05:52:30;;;;;;;6.63;3.93;;;-0.60;75.20;;;;;;5001441;28;20050;-81
2024/01/08 05:54:56;;;;;;;9.13;4.63;;;-0.60;75.40;;;;;;5018333;28;20479;-81
2024/01/08 05:57:22;;;;;;;6.07;3.53;;;-0.60;75.50;;;;;;5018715;28;20120;-81
2024/01/08 05:59:47;;;;;;;6.63;3.77;;;-0.60;75.10;;;;;;5017728;28;20540;-81
2024/01/08 06:02:13;;;;;;;7.03;4.40;;;-0.70;74.90;;;;;;5006267;28;20107;-81
2024/01/08 06:04:39;;;;;;;6.47;3.43;;;-0.70;75.00;;;;;;5012500;28;20041;-81
2024/01/08 06:07:04;;;;;;;7.00;3.93;;;-0.70;75.20;;;;;;5027052;28;20064;-81
2024/01/08 06:09:30;;;;;;;5.70;3.57;;;-0.70;75.30;;;;;;5008471;28;20376;-81
2024/01/08 06:11:56;;;;;;;6.30;3.27;;;-0.80;75.10;;;;;;5027268;28;21647;-81
2024/01/08 06:14:21;;;;;;;6.50;3.30;;;-0.80;75.10;;;;;;5029271;28;20040;-81
2024/01/08 06:16:47;;;;;;;7.80;3.90;;;-0.80;75.00;;;;;;5026102;28;20064;-81
2024/01/08 06:19:13;;;;;;;6.13;3.40;;;-0.80;75.10;;;;;;5011341;28;20045;-81
2024/01/08 06:21:38;;;;;;;8.63;3.40;;;-0.80;74.70;;;;;;5020102;28;20060;-81
2024/01/08 06:24:04;;;;;;;6.10;3.40;;;-0.90;75.00;;;;;;5001230;28;20034;-81
2024/01/08 06:26:31;;;;;;;5.00;2.97;;;-0.90;75.10;;;;;;5029004;28;20091;-80
2024/01/08 06:28:56;;;;;;;5.43;3.20;;;-0.90;75.20;;;;;;5009954;28;20037;-81
2024/01/08 06:31:22;;;;;;;4.60;2.80;;;-0.90;75.20;;;;;;5026571;28;20030;-81
2024/01/08 06:33:48;;;;;;;6.37;3.13;;;-1.00;75.20;;;;;;5025992;28;20068;-81
2024/01/08 06:36:13;;;;;;;8.60;4.03;;;-0.90;75.40;;;;;;5002261;28;20404;-81
2024/01/08 06:38:39;;;;;;;7.13;4.03;;;-0.90;75.50;;;;;;5011864;28;20453;-81
2024/01/08 06:41:05;;;;;;;5.67;3.10;;;-0.90;75.70;;;;;;5024949;28;20087;-81
2024/01/08 06:43:31;;;;;;;5.87;3.60;;;-0.90;75.90;;;;;;5026823;28;20082;-81
2024/01/08 06:45:57;;;;;;;6.80;4.20;;;-0.90;76.00;;;;;;5023703;28;20045;-81
2024/01/08 06:48:23;;;;;;;6.37;3.90;;;-0.90;76.50;;;;;;5009332;28;20132;-82
2024/01/08 06:50:48;;;;;;;8.70;3.97;;;-0.90;76.50;;;;;;5027856;28;20041;-83
2024/01/08 06:53:14;;;;;;;6.00;4.03;;;-0.90;76.80;;;;;;5025733;28;20034;-82
2024/01/08 06:55:39;;;;;;;8.57;4.17;;;-0.90;77.10;;;;;;5009753;28;20049;-82
2024/01/08 06:58:05;;;;;;;8.33;3.80;;;-0.90;77.30;;;;;;5025004;28;20046;-83
2024/01/08 07:00:30;;;;;;;6.20;3.67;;;-0.90;77.50;;;;;;5027001;28;20121;-81
2024/01/08 07:02:56;;;;;;;7.90;4.10;;;-0.90;77.80;;;;;;5027451;28;20037;-82
2024/01/08 07:05:22;;;;;;;9.57;5.00;;;-0.90;77.90;;;;;;5024903;28;20038;-82
2024/01/08 07:07:48;;;;;;;8.97;4.10;;;-0.90;78.30;;;;;;5008736;28;20053;-82
2024/01/08 07:10:13;;;;;;;7.17;4.30;;;-0.60;78.60;;;;;;5010086;28;20612;-82
2024/01/08 07:12:39;;;;;;;8.73;4.33;;;-0.80;78.70;;;;;;5024885;28;20044;-83
2024/01/08 07:15:05;;;;;;;7.17;4.00;;;-0.90;78.80;;;;;;5019341;28;20461;-82
2024/01/08 07:17:31;;;;;;;9.27;4.10;;;-0.90;78.80;;;;;;5013809;28;20053;-82
2024/01/08 07:19:56;;;;;;;8.17;4.00;;;-0.90;78.90;;;;;;5007621;28;20034;-83
2024/01/08 07:22:22;;;;;;;7.53;3.90;;;-0.80;79.20;;;;;;5022833;28;20096;-82
2024/01/08 07:24:48;;;;;;;6.97;4.30;;;-0.80;79.20;;;;;;5024559;28;20408;-82
2024/01/08 07:27:13;;;;;;;11.47;5.03;;;-0.80;79.40;;;;;;5032835;28;20037;-82
2024/01/08 07:29:39;;;;;;;8.13;3.90;;;-0.80;79.40;;;;;;5018751;28;20092;-81
2024/01/08 07:32:05;;;;;;;7.40;3.90;;;-0.80;79.70;;;;;;5019563;28;20041;-81
2024/01/08 07:34:30;;;;;;;6.30;4.03;;;-0.80;79.60;;;;;;5030258;28;20038;-81
2024/01/08 07:36:56;;;;;;;7.80;3.93;;;-0.80;79.70;;;;;;5010313;28;20163;-81
2024/01/08 07:39:22;;;;;;;9.43;4.73;;;-0.80;79.90;;;;;;5035574;28;20057;-81
2024/01/08 07:41:49;;;;;;;10.27;4.37;;;-0.80;79.80;;;;;;5021248;28;20030;-82
2024/01/08 07:44:15;;;;;;;8.13;4.60;;;-0.70;79.90;;;;;;5014242;28;20053;-81
2024/01/08 07:46:42;;;;;;;8.60;4.13;;;-0.70;80.00;;;;;;5033892;28;20041;-81
2024/01/08 07:49:09;;;;;;;9.47;4.00;;;-0.70;80.30;;;;;;5026389;28;20046;-82
2024/01/08 07:51:34;;;;;;;7.73;4.17;;;-0.70;80.40;;;;;;5018186;28;20112;-82
2024/01/08 07:54:00;;;;;;;8.17;3.63;;;-0.70;80.70;;;;;;5028002;28;20072;-82
2024/01/08 07:56:26;;;;;;;8.77;4.30;;;-0.70;80.30;;;;;;5020223;28;20034;-82
2024/01/08 07:58:52;;;;;;;7.70;4.40;;;-0.70;80.50;;;;;;5010774;28;20048;-81
2024/01/08 08:01:18;;;;;;;8.03;4.67;;;-0.70;80.50;;;;;;5008562;28;20086;-82
2024/01/08 08:03:44;;;;;;;7.70;3.63;;;-0.70;80.60;;;;;;5013028;28;20121;-81
2024/01/08 08:06:10;;;;;;;7.17;4.10;;;-0.70;80.60;;;;;;5003165;28;20061;-81
2024/01/08 08:08:36;;;;;;;7.93;4.00;;;-0.70;80.60;;;;;;5019049;28;20069;-81
2024/01/08 08:11:03;;;;;;;7.07;3.37;;;-0.70;80.70;;;;;;5020857;28;20048;-81
2024/01/08 08:13:29;;;;;;;7.27;4.10;;;-0.60;80.80;;;;;;5011104;28;20041;-82
2024/01/08 08:15:55;;;;;;;6.67;3.87;;;-0.60;80.80;;;;;;4999549;28;20037;-81
2024/01/08 08:18:21;;;;;;;6.80;3.70;;;-0.60;80.80;;;;;;5023833;28;20041;-82
2024/01/08 08:20:46;;;;;;;4.67;3.20;;;-0.60;80.90;;;;;;5015403;28;20501;-81
2024/01/08 08:23:12;;;;;;;6.17;3.63;;;-0.50;80.90;;;;;;5014557;28;20426;-81
2024/01/08 08:25:38;;;;;;;9.40;4.20;;;-0.50;80.80;;;;;;4996607;28;20065;-81
2024/01/08 08:28:05;;;;;;;6.90;3.43;;;-0.50;80.90;;;;;;5005830;28;20038;-82
2024/01/08 08:30:30;;;;;;;7.00;3.73;;;-0.50;80.70;;;;;;5018459;28;20495;-82
2024/01/08 08:32:58;;;;;;;6.90;3.50;;;-0.50;80.80;;;;;;5024962;28;20041;-82
2024/01/08 08:35:25;;;;;;;4.63;3.10;;;-0.50;80.60;;;;;;5000901;28;20080;-82
2024/01/08 08:37:51;;;;;;;7.30;3.40;;;-0.50;80.60;;;;;;5023300;28;20117;-82
2024/01/08 08:40:17;;;;;;;8.30;3.57;;;-0.40;80.50;;;;;;5025524;28;20495;-82
2024/01/08 08:42:43;;;;;;;5.43;3.20;;;-0.40;80.40;;;;;;5023051;28;20038;-82
2024/01/08 08:45:09;;;;;;;6.87;2.97;;;-0.40;80.30;;;;;;5011027;28;20411;-82
2024/01/08 08:47:35;;;;;;;6.07;3.00;;;-0.40;80.20;;;;;;5023880;28;20069;-82
2024/01/08 08:50:00;;;;;;;5.90;2.93;;;-0.40;80.00;;;;;;5021201;28;20045;-82
2024/01/08 08:52:26;;;;;;;5.17;3.13;;;-0.30;79.90;;;;;;5030560;28;20049;-82
2024/01/08 08:54:52;;;;;;;5.13;2.63;;;-0.30;79.70;;;;;;5016543;28;20530;-81
2024/01/08 08:57:17;;;;;;;8.10;3.40;;;-0.30;79.30;;;;;;5024568;28;20052;-82
2024/01/08 08:59:43;;;;;;;6.67;3.30;;;-0.20;79.30;;;;;;5027218;28;20404;-83
2024/01/08 09:02:09;;;;;;;5.67;2.90;;;-0.20;79.40;;;;;;5028723;28;20530;-82
2024/01/08 09:04:35;;;;;;;5.07;3.07;;;-0.20;79.10;;;;;;5027240;28;20046;-80
2024/01/08 09:07:00;;;;;;;5.97;3.20;;;-0.20;78.60;;;;;;5006513;28;20038;-82
2024/01/08 09:09:26;;;;;;;5.13;2.90;;;-0.20;78.60;;;;;;5029494;28;20128;-82
2024/01/08 09:11:51;;;;;;;5.63;2.90;;;-0.20;78.40;;;;;;5027335;28;20366;-81
2024/01/08 09:14:17;;;;;;;8.67;3.40;;;-0.20;78.30;;;;;;5028473;28;20095;-81
2024/01/08 09:16:43;;;;;;;9.60;3.30;;;-0.10;78.20;;;;;;5027828;28;20041;-81
2024/01/08 09:19:09;;;;;;;6.30;3.97;;;-0.10;78.20;;;;;;5014563;28;20038;-82
2024/01/08 09:21:34;;;;;;;6.17;3.20;;;-0.10;78.40;;;;;;5027509;28;20036;-82
2024/01/08 09:24:00;;;;;;;5.00;3.20;;;-0.10;78.60;;;;;;5024723;28;20091;-83
2024/01/08 09:26:25;;;;;;;7.60;3.77;;;-0.10;78.80;;;;;;5008250;28;20400;-82
2024/01/08 09:28:51;;;;;;;6.33;3.13;;;-0.10;79.00;;;;;;5006573;28;20068;-83
2024/01/08 09:31:17;;;;;;;7.53;3.10;;;0.00;79.10;;;;;;5022378;28;20045;-81
2024/01/08 09:33:43;;;;;;;8.37;3.90;;;0.00;79.10;;;;;;5022273;28;20044;-80
2024/01/08 09:36:09;;;;;;;6.37;2.90;;;0.00;78.90;;;;;;5002217;28;20041;-81
2024/01/08 09:38:34;;;;;;;6.53;3.13;;;0.00;78.70;;;;;;5008951;28;20076;-81
2024/01/08 09:41:00;;;;;;;7.20;3.17;;;0.00;78.60;;;;;;5023924;28;20034;-80
2024/01/08 09:43:28;;;;;;;4.97;3.00;;;0.00;78.60;;;;;;5027615;28;20129;-81
2024/01/08 09:46:07;;;;;;;7.70;3.73;;;0.10;78.50;;;;;;5044252;28;20104;-82
2024/01/08 09:48:34;;;;;;;9.17;4.20;;;0.10;78.10;;;;;;5026657;28;20033;-81
2024/01/08 09:51:02;;;;;;;6.43;3.03;;;0.10;77.90;;;;;;5023161;28;20054;-81
2024/01/08 09:53:30;;;;;;;6.20;2.97;;;0.10;78.10;;;;;;5031527;28;20128;-81
2024/01/08 09:55:56;;;;;;;6.50;3.10;;;0.10;78.40;;;;;;4999724;28;20046;-81
2024/01/08 09:58:21;;;;;;;5.63;2.80;;;0.10;78.30;;;;;;5028251;28;20899;-82
2024/01/08 10:00:47;;;;;;;6.37;2.97;;;0.10;77.60;;;;;;5024483;28;20049;-81
2024/01/08 10:03:13;;;;;;;5.53;2.90;;;0.20;77.80;;;;;;5020614;28;20037;-83
2024/01/08 10:05:39;;;;;;;6.13;3.33;;;0.10;77.90;;;;;;5026352;28;20460;-83
2024/01/08 10:08:05;;;;;;;8.90;3.37;;;0.20;78.00;;;;;;4999166;28;20046;-83
2024/01/08 10:10:32;;;;;;;6.40;3.10;;;0.20;77.60;;;;;;5025751;28;20042;-83
2024/01/08 10:12:58;;;;;;;9.03;3.07;;;0.20;77.40;;;;;;5028760;28;20116;-84
2024/01/08 10:15:24;;;;;;;5.80;2.73;;;0.20;77.30;;;;;;5027490;28;20038;-84
2024/01/08 10:17:55;;;;;;;6.07;2.97;;;0.20;76.90;;;;;;5006028;28;20497;-83
2024/01/08 10:20:20;;;;;;;5.67;2.67;;;0.30;76.70;;;;;;5005464;28;20484;-83
2024/01/08 10:22:47;;;;;;;5.83;2.77;;;0.20;76.50;;;;;;5014981;28;20117;-84
2024/01/08 10:25:22;;;;;;;6.70;2.83;;;0.30;76.50;;;;;;5009523;28;20037;-85
2024/01/08 10:27:49;;;;;;;6.63;3.43;;;0.30;76.30;;;;;;4975715;28;20044;-84
2024/01/08 10:30:15;;;;;;;7.10;2.60;;;0.30;75.70;;;;;;5022073;28;20038;-83
2024/01/08 10:32:41;;;;;;;7.47;2.83;;;0.30;75.50;;;;;;5023780;28;20428;-84
2024/01/08 10:35:07;;;;;;;5.30;3.00;;;0.40;75.30;;;;;;5020293;28;20065;-84
2024/01/08 10:37:35;;;;;;;6.37;2.40;;;0.30;75.40;;;;;;5009012;28;20053;-83
2024/01/08 10:40:04;;;;;;;4.47;2.77;;;0.30;75.30;;;;;;5023869;28;20049;-84
2024/01/08 10:42:29;;;;;;;6.70;3.20;;;0.40;74.80;;;;;;5019735;28;20045;-84
2024/01/08 10:44:56;;;;;;;4.00;2.50;;;0.30;74.40;;;;;;5021115;28;20045;-83
2024/01/08 10:47:24;;;;;;;6.80;3.13;;;0.30;74.50;;;;;;5022863;28;20448;-84
2024/01/08 10:49:56;;;;;;;5.13;2.80;;;0.30;74.20;;;;;;5027376;28;20518;-83
2024/01/08 10:52:27;;;;;;;5.57;2.47;;;0.30;74.10;;;;;;5021513;28;20104;-84
2024/01/08 10:54:58;;;;;;;5.37;3.13;;;0.30;74.10;;;;;;5019936;28;20089;-82
2024/01/08 10:57:50;;;;;;;5.33;2.87;;;0.40;73.80;;;;;;5017712;28;20048;-82
2024/01/08 11:00:17;;;;;;;5.63;2.50;;;0.40;73.00;;;;;;5003814;28;20048;-82
2024/01/08 11:02:44;;;;;;;6.57;2.47;;;0.40;73.10;;;;;;5024148;28;20099;-82
2024/01/08 11:05:10;;;;;;;6.27;2.80;;;0.40;72.40;;;;;;5004890;28;20388;-81
2024/01/08 11:07:40;;;;;;;6.87;2.97;;;0.50;71.90;;;;;;5027205;28;20050;-83
2024/01/08 11:10:07;;;;;;;6.43;3.07;;;0.50;71.20;;;;;;5010155;28;20041;-83
2024/01/08 11:12:36;;;;;;;6.83;3.00;;;0.50;70.80;;;;;;5026267;28;20450;-83
2024/01/08 11:15:04;;;;;;;5.13;2.60;;;0.50;70.60;;;;;;5006662;28;20033;-82
2024/01/08 11:17:30;;;;;;;4.23;2.70;;;0.50;70.20;;;;;;5030002;28;20053;-83
2024/01/08 11:19:57;;;;;;;7.03;3.57;;;0.50;70.30;;;;;;5007173;28;20035;-82
2024/01/08 11:22:23;;;;;;;4.93;2.63;;;0.50;70.20;;;;;;5008252;28;20029;-83
2024/01/08 11:24:49;;;;;;;5.47;2.90;;;0.60;70.00;;;;;;5009013;28;20049;-84
2024/01/08 11:27:16;;;;;;;5.50;2.50;;;0.50;70.10;;;;;;5020020;28;20038;-83
2024/01/08 11:29:43;;;;;;;5.73;2.57;;;1.10;69.80;;;;;;5009633;28;20064;-84
2024/01/08 11:32:47;;;;;;;4.50;2.50;;;1.00;67.70;;;;;;5025349;28;20041;-85
2024/01/08 11:35:14;;;;;;;6.53;2.80;;;0.60;67.50;;;;;;4998764;28;20125;-84
2024/01/08 11:37:42;;;;;;;5.37;3.27;;;0.50;68.30;;;;;;4999524;28;20041;-85
2024/01/08 11:40:14;;;;;;;6.23;2.90;;;0.60;67.20;;;;;;5020831;28;20046;-85
2024/01/08 11:42:40;;;;;;;4.77;2.73;;;0.60;67.70;;;;;;5009356;28;20407;-84
2024/01/08 11:45:06;;;;;;;4.73;2.80;;;0.60;67.90;;;;;;5019590;28;20137;-84
2024/01/08 11:47:32;;;;;;;5.43;2.53;;;0.60;68.00;;;;;;5027012;28;20037;-84
2024/01/08 11:49:58;;;;;;;3.80;2.50;;;0.60;68.20;;;;;;5007004;28;20040;-84
2024/01/08 11:52:28;;;;;;;6.90;3.80;;;0.70;68.50;;;;;;5008234;28;20030;-84
2024/01/08 11:54:55;;;;;;;5.33;2.70;;;1.00;67.60;;;;;;5027922;28;20037;-85
2024/01/08 11:57:20;;;;;;;6.30;2.83;;;0.70;67.80;;;;;;5006678;28;20033;-83
2024/01/08 11:59:46;;;;;;;5.73;2.40;;;0.70;67.40;;;;;;5007219;28;20056;-84
2024/01/08 12:02:14;;;;;;;5.03;2.67;;;0.70;66.50;;;;;;5018276;28;20101;-85
2024/01/08 12:04:40;;;;;;;6.37;2.70;;;0.90;65.90;;;;;;5003113;28;20104;-85
2024/01/08 12:07:12;;;;;;;5.37;2.80;;;0.70;65.70;;;;;;5009114;28;20044;-84
2024/01/08 12:09:39;;;;;;;5.57;2.37;;;0.70;64.90;;;;;;5034929;28;20094;-85
2024/01/08 12:12:06;;;;;;;5.50;2.50;;;0.70;64.90;;;;;;5017718;28;20045;-85
2024/01/08 12:14:34;;;;;;;6.30;2.80;;;0.70;64.60;;;;;;5031951;28;20109;-84
2024/01/08 12:17:06;;;;;;;4.07;2.60;;;0.60;64.40;;;;;;4993876;28;20080;-83
2024/01/08 12:19:48;;;;;;;6.03;3.07;;;0.70;64.00;;;;;;4996713;28;20112;-84
2024/01/08 12:22:15;;;;;;;8.93;3.17;;;0.70;63.30;;;;;;5020775;28;20065;-84
2024/01/08 12:24:42;;;;;;;5.83;2.90;;;0.70;63.90;;;;;;5026071;28;20037;-83
2024/01/08 12:27:08;;;;;;;5.57;2.73;;;0.70;64.50;;;;;;5009015;28;20042;-83
2024/01/08 12:29:41;;;;;;;5.90;3.17;;;0.70;65.00;;;;;;5024054;28;20164;-84
2024/01/08 12:32:13;;;;;;;6.10;2.57;;;0.70;65.00;;;;;;5015978;28;20119;-83
2024/01/08 12:34:42;;;;;;;5.77;2.47;;;0.70;65.10;;;;;;5009155;28;20469;-83
2024/01/08 12:37:09;;;;;;;8.70;3.33;;;0.80;65.80;;;;;;5017907;28;20038;-83
2024/01/08 12:39:35;;;;;;;5.67;2.87;;;0.70;66.10;;;;;;5014449;28;20125;-83
2024/01/08 12:42:13;;;;;;;5.93;3.00;;;0.80;66.40;;;;;;5010465;28;20144;-83
2024/01/08 12:44:40;;;;;;;4.47;2.60;;;0.90;64.20;;;;;;5016391;28;20576;-83